< Typhoon 201407 2014 Season Typhoon 201409 >
Typhoon 201408 (NEOGURI)
General InformationTrack Information on Google MapsDetailed Wind InformationForecast History on Google MapsAccess Analytics MapList of All Images || NewsDisaster Info.WeblogTrackbackTyphoon FrontTwiphoonTyphoon Now!Typhoon ImaginationDisaster Info. XMLResourceGoogle EarthGE AnimationAtom FeedGeoJSON
Detalied Best Track (Time Zone = UTC)
Year Month Day Hour Lat. Long. Pressure (hPa) Wind (kt) Class Image Chart
2014 7 2 12 8.4 146.8 1006 0 2 Image Chart
2014 7 2 18 8.9 146.0 1004 0 2 Image Chart
2014 7 3 00 9.2 145.6 1004 0 2 Image Chart
2014 7 3 06 9.6 144.8 1004 0 2 Image Chart
2014 7 3 12 10.4 144.1 1002 0 2 Image Chart
2014 7 3 18 11.4 143.3 1000 35 3 Image Chart
2014 7 4 00 12.0 142.6 996 40 3 Image Chart
2014 7 4 06 13.0 141.3 990 45 3 Image Chart
2014 7 4 12 14.0 140.5 975 65 5 Image Chart
2014 7 4 18 14.5 139.1 970 70 5 Image Chart
2014 7 5 00 15.2 138.3 965 75 5 Image Chart
2014 7 5 06 16.0 137.0 955 80 5 Image Chart
2014 7 5 12 16.7 136.0 945 85 5 Image Chart
2014 7 5 18 17.4 134.5 945 85 5 Image Chart
2014 7 6 00 18.0 133.0 935 95 5 Image Chart
2014 7 6 06 18.4 131.5 935 95 5 Image Chart
2014 7 6 12 18.9 130.3 935 95 5 Image Chart
2014 7 6 18 19.7 129.1 930 100 5 Image Chart
2014 7 7 00 20.4 128.3 930 100 5 Image Chart
2014 7 7 06 21.6 127.3 935 95 5 Image Chart
2014 7 7 09 21.9 127.0 940 90 5 Image Chart
2014 7 7 12 22.3 126.8 940 90 5 Image Chart
2014 7 7 15 23.1 126.7 940 90 5 Image Chart
2014 7 7 18 23.7 126.2 940 90 5 Image Chart
2014 7 7 21 24.3 126.1 940 90 5 Image Chart
2014 7 8 00 25.0 126.1 940 90 5 Image Chart
2014 7 8 03 25.8 125.9 940 90 5 Image Chart
2014 7 8 06 26.5 125.7 945 85 5 Image Chart
2014 7 8 09 27.1 125.6 945 85 5 Image Chart
2014 7 8 12 27.7 125.7 945 85 5 Image Chart
2014 7 8 15 28.4 125.7 950 80 5 Image Chart
2014 7 8 18 28.9 125.8 955 75 5 Image Chart
2014 7 8 21 29.7 126.1 960 70 5 Image Chart
2014 7 9 00 30.4 126.2 965 70 5 Image Chart
2014 7 9 03 30.8 126.4 965 65 5 Image Chart
2014 7 9 06 31.4 126.9 970 60 4 Image Chart
2014 7 9 09 31.6 127.1 970 55 4 Image Chart
2014 7 9 12 31.7 127.6 970 55 4 Image Chart
2014 7 9 15 31.8 128.5 975 50 4 Image Chart
2014 7 9 18 32.1 129.2 975 50 4 Image Chart
2014 7 9 21 32.1 130.0 980 50 4 Image Chart
2014 7 10 00 32.1 131.5 985 50 4 Image Chart
2014 7 10 03 32.4 132.9 985 50 4 Image Chart
2014 7 10 06 33.0 134.3 985 50 4 Image Chart
2014 7 10 09 33.5 135.3 985 50 4 Image Chart
2014 7 10 12 33.8 136.8 990 50 4 Image Chart
2014 7 10 15 34.1 137.7 990 45 3 Image Chart
2014 7 10 17 34.6 138.5 990 45 3 Image Chart
2014 7 10 18 34.7 139.1 990 45 3 Image Chart
2014 7 10 19 34.9 139.5 990 45 3 Image Chart
2014 7 10 21 35.3 140.4 990 45 3 Image Chart
2014 7 11 00 37.0 142.0 990 0 6 Image Chart
2014 7 11 06 38.0 142.9 990 0 6 Image Chart
2014 7 11 12 39.8 145.5 992 0 6 Image Chart
2014 7 11 18 43.2 147.8 992 0 6 Image Chart
2014 7 12 00 46.2 147.7 992 0 6 Image Chart
2014 7 12 06 49.3 147.2 992 0 6 Image Chart
2014 7 12 12 50.2 148.4 994 0 6 Image Chart
2014 7 12 18 51.2 148.8 994 0 6 Image Chart
2014 7 13 00 52.4 149.5 996 0 6 Image Chart
2014 7 13 06 53.7 149.5 996 0 6 Image Chart
Japan Meteorological Agency Best Track Data | Correction Date : 2014-08-18
< Typhoon 201407 2014 Season Typhoon 201409 >

Help